createdAt,value
2019-04-28T00:02:08.573Z,100813.34
2019-04-28T00:04:39.034Z,100817.91
2019-04-28T00:07:09.555Z,100820.09
2019-04-28T05:32:20.878Z,101000.73
2019-04-28T05:34:52.956Z,100997.25
2019-04-28T05:37:23.612Z,100999.30
2019-04-28T05:39:54.112Z,101004.30
2019-04-28T05:42:24.642Z,101003.08
2019-04-28T05:45:14.333Z,101006.57
2019-04-28T05:47:44.780Z,101009.34
2019-04-28T05:53:37.394Z,101014.61
2019-04-28T05:56:15.880Z,101012.97
2019-04-28T05:58:52.852Z,101014.72
2019-04-28T06:01:51.526Z,101016.53
2019-04-28T06:04:25.522Z,101012.30
2019-04-28T06:07:00.319Z,101016.89
2019-04-28T06:09:35.678Z,101021.44
2019-04-28T06:12:10.191Z,101021.23
2019-04-28T06:14:40.588Z,101022.52
2019-04-28T06:17:11.061Z,101025.14
2019-04-28T06:19:41.659Z,101038.62
2019-04-28T06:22:12.000Z,101036.67
2019-04-28T06:24:42.489Z,101044.84
2019-04-28T06:27:13.036Z,101038.62
2019-04-28T06:29:43.494Z,101041.26
2019-04-28T06:32:13.972Z,101040.30
2019-04-28T06:34:44.503Z,101047.66
2019-04-28T06:37:14.887Z,101037.66
2019-04-28T06:39:47.303Z,101049.20
2019-04-28T06:42:17.682Z,101059.98
2019-04-28T06:44:48.197Z,101062.00
2019-04-28T06:47:18.693Z,101076.17
2019-04-28T06:49:49.211Z,101069.98
2019-04-28T06:52:19.672Z,101077.63
2019-04-28T06:54:50.165Z,101073.19
2019-04-28T06:57:20.735Z,101067.49
2019-04-28T06:59:51.216Z,101066.71
2019-04-28T07:02:21.689Z,101066.21
2019-04-28T07:05:01.632Z,101065.64
2019-04-28T07:07:24.428Z,101069.98
2019-04-28T07:09:54.902Z,101074.79
2019-04-28T07:12:25.431Z,101064.11
2019-04-28T07:14:55.928Z,101067.98
2019-04-28T07:17:26.401Z,101073.02
2019-04-28T07:20:04.600Z,101075.67
2019-04-28T07:22:35.095Z,101092.34
2019-04-28T07:25:05.594Z,101091.23
2019-04-28T07:27:36.121Z,101093.77
2019-04-28T07:30:07.358Z,101095.19
2019-04-28T07:32:37.844Z,101111.17
2019-04-28T07:35:08.389Z,101113.66
2019-04-28T07:37:40.978Z,101123.63
2019-04-28T07:40:11.559Z,101137.02
2019-04-28T07:42:42.131Z,101136.88
2019-04-28T07:45:12.688Z,101139.59
2019-04-28T07:47:43.188Z,101138.84
2019-04-28T07:50:13.803Z,101131.69
2019-04-28T07:52:49.230Z,101135.73
2019-04-28T07:55:19.730Z,101135.06
2019-04-28T07:57:50.197Z,101135.78
2019-04-28T08:00:27.320Z,101142.33
2019-04-28T08:02:57.852Z,101133.57
2019-04-28T08:05:28.290Z,101132.04
2019-04-28T08:07:58.806Z,101127.98
2019-04-28T08:10:29.338Z,101136.27
2019-04-28T08:12:59.821Z,101134.49
2019-04-28T08:15:30.327Z,101137.02
2019-04-28T08:18:00.786Z,101145.53
2019-04-28T08:20:31.182Z,101148.38
2019-04-28T08:23:01.668Z,101149.56
2019-04-28T08:25:32.220Z,101174.64
2019-04-28T08:28:02.831Z,101179.44
2019-04-28T08:30:33.754Z,101192.02
2019-04-28T08:33:15.598Z,101205.66
2019-04-28T08:35:46.106Z,101204.45
2019-04-28T08:38:16.613Z,101205.66
2019-04-28T08:40:47.016Z,101205.05
2019-04-28T08:43:17.557Z,101198.42
2019-04-28T08:45:48.023Z,101203.23
2019-04-28T08:48:18.535Z,101201.69
2019-04-28T08:50:49.041Z,101204.50
2019-04-28T08:53:19.563Z,101207.50
2019-04-28T08:55:50.064Z,101213.20
2019-04-28T08:58:20.581Z,101215.59
2019-04-28T09:00:51.109Z,101226.89
2019-04-28T09:03:21.591Z,101233.09
2019-04-28T09:05:52.190Z,101235.22
2019-04-28T09:08:22.632Z,101234.66
2019-04-28T09:10:53.090Z,101247.83
2019-04-28T09:13:23.566Z,101256.14
2019-04-28T09:15:53.953Z,101254.98
2019-04-28T09:18:24.471Z,101252.95
2019-04-28T09:20:54.971Z,101258.02
2019-04-28T09:23:25.468Z,101266.13
2019-04-28T09:25:55.928Z,101262.39
2019-04-28T09:28:26.418Z,101257.47
2019-04-28T09:30:56.883Z,101245.80
2019-04-28T09:33:27.334Z,101251.38
2019-04-28T09:35:57.894Z,101246.52
2019-04-28T09:38:28.354Z,101248.70
2019-04-28T09:40:58.916Z,101257.66
2019-04-28T09:43:47.324Z,101265.27
2019-04-28T09:46:21.601Z,101265.16
2019-04-28T09:48:52.134Z,101271.33
2019-04-28T09:51:22.674Z,101277.80
2019-04-28T09:53:53.158Z,101280.22
2019-04-28T09:56:23.682Z,101282.55
2019-04-28T09:58:54.153Z,101286.70
2019-04-28T10:01:24.626Z,101284.22
2019-04-28T10:03:55.103Z,101283.47
2019-04-28T10:06:25.601Z,101280.16
2019-04-28T10:08:56.085Z,101283.46
2019-04-28T10:11:30.589Z,101282.09
2019-04-28T10:13:58.910Z,101282.66
2019-04-28T10:16:29.379Z,101289.04
2019-04-28T10:18:59.917Z,101297.20
2019-04-28T10:21:30.379Z,101294.75
2019-04-28T10:24:00.867Z,101305.78
2019-04-28T10:26:31.456Z,101299.55
2019-04-28T10:29:01.983Z,101305.84
2019-04-28T10:31:32.485Z,101308.23
2019-04-28T10:34:04.754Z,101307.70
2019-04-28T10:36:36.669Z,101315.92
2019-04-28T10:39:43.746Z,101305.39
2019-04-28T10:42:14.206Z,101307.94
2019-04-28T10:44:46.374Z,101318.88
2019-04-28T10:47:17.705Z,101308.97
2019-04-28T10:49:48.288Z,101320.55
2019-04-28T10:52:18.931Z,101327.66
2019-04-28T10:54:49.427Z,101331.81
2019-04-28T10:57:19.894Z,101333.09
2019-04-28T10:59:50.470Z,101336.50
2019-04-28T11:02:20.970Z,101344.40
2019-04-28T11:05:13.517Z,101352.36
2019-04-28T11:07:44.466Z,101352.52
2019-04-28T11:10:20.118Z,101350.52
2019-04-28T11:12:53.037Z,101352.98
2019-04-28T11:15:33.746Z,101350.95
2019-04-28T11:18:06.434Z,101354.85
2019-04-28T11:20:36.950Z,101361.70
2019-04-28T11:23:07.449Z,101361.94
2019-04-28T11:25:38.028Z,101352.85
2019-04-28T11:28:08.784Z,101350.70
2019-04-28T11:30:39.253Z,101354.59
2019-04-28T11:33:27.700Z,101358.81
2019-04-28T11:35:58.290Z,101351.55
2019-04-28T11:38:28.782Z,101353.62
2019-04-28T11:40:59.300Z,101365.47
2019-04-28T11:43:29.790Z,101367.46
2019-04-28T11:46:00.277Z,101371.17
2019-04-28T11:48:30.795Z,101368.99
2019-04-28T11:51:01.384Z,101360.73
2019-04-28T11:53:31.882Z,101359.72
2019-04-28T11:56:02.389Z,101362.56
2019-04-28T11:58:32.984Z,101364.39
2019-04-28T12:01:03.814Z,101368.28
2019-04-28T12:03:34.336Z,101372.77
2019-04-28T12:06:04.916Z,101379.98
2019-04-28T12:08:35.389Z,101380.20
2019-04-28T12:11:23.541Z,101378.30
2019-04-28T12:14:19.193Z,101373.00
2019-04-28T12:17:17.588Z,101370.58
2019-04-28T12:19:54.122Z,101376.06
2019-04-28T12:22:24.725Z,101380.06
2019-04-28T12:24:55.261Z,101379.23
2019-04-28T12:27:25.778Z,101374.25
2019-04-28T12:29:56.400Z,101380.64
2019-04-28T12:32:26.867Z,101380.45
2019-04-28T12:34:57.331Z,101379.13
2019-04-28T12:37:27.891Z,101382.00
2019-04-28T12:39:58.391Z,101385.81
2019-04-28T12:42:28.821Z,101389.11
2019-04-28T12:44:59.382Z,101388.86
2019-04-28T12:47:29.843Z,101386.94
2019-04-28T12:50:06.113Z,101381.09
2019-04-28T12:52:36.699Z,101391.52
2019-04-28T12:55:07.589Z,101387.94
2019-04-28T12:57:38.109Z,101394.84
2019-04-28T13:00:27.868Z,101390.62
2019-04-28T13:03:20.321Z,101400.95
2019-04-28T13:06:02.372Z,101403.58
2019-04-28T13:08:23.778Z,101405.07
2019-04-28T13:10:54.565Z,101406.48
2019-04-28T13:13:25.046Z,101410.06
2019-04-28T13:15:55.529Z,101411.00
2019-04-28T13:18:26.065Z,101405.86
2019-04-28T13:20:58.964Z,101414.53
2019-04-28T13:23:28.806Z,101421.39
2019-04-28T13:25:59.408Z,101423.08
2019-04-28T13:28:29.896Z,101423.63
2019-04-28T13:31:00.413Z,101423.29
2019-04-28T13:33:30.935Z,101422.45
2019-04-28T13:36:13.791Z,101424.13
2019-04-28T13:38:33.632Z,101422.58
2019-04-28T13:41:04.145Z,101428.20
2019-04-28T13:43:34.816Z,101428.92
2019-04-28T13:46:05.429Z,101426.07
2019-04-28T13:48:35.920Z,101436.56
2019-04-28T13:51:06.395Z,101432.00
2019-04-28T13:53:36.870Z,101428.88
2019-04-28T13:56:07.387Z,101440.63
2019-04-28T13:58:47.118Z,101435.56
2019-04-28T14:01:39.652Z,101437.35
2019-04-28T14:04:41.290Z,101442.77
2019-04-28T14:07:11.818Z,101440.77
2019-04-28T14:09:42.335Z,101438.86
2019-04-28T14:12:12.840Z,101436.20
2019-04-28T14:14:43.433Z,101430.62
2019-04-28T14:17:13.944Z,101431.83
2019-04-28T14:19:44.424Z,101440.13
2019-04-28T14:22:14.889Z,101440.51
2019-04-28T14:24:45.357Z,101437.53
2019-04-28T14:27:15.874Z,101444.48
2019-04-28T14:29:46.445Z,101443.78
2019-04-28T14:32:16.935Z,101445.84
2019-04-28T14:34:47.480Z,101447.88
2019-04-28T14:37:18.054Z,101444.65
2019-04-28T14:39:48.549Z,101444.70
2019-04-28T14:42:19.148Z,101443.98
2019-04-28T14:44:49.681Z,101448.83
2019-04-28T14:47:20.161Z,101453.12
2019-04-28T14:49:50.632Z,101445.97
2019-04-28T14:52:21.171Z,101450.70
2019-04-28T14:54:51.670Z,101453.24
2019-04-28T14:57:22.151Z,101458.62
2019-04-28T14:59:52.648Z,101454.80
2019-04-28T15:02:33.162Z,101458.79
2019-04-28T15:05:17.140Z,101461.23
2019-04-28T15:08:00.838Z,101465.50
2019-04-28T15:10:50.273Z,101461.47
2019-04-28T15:13:22.184Z,101466.77
2019-04-28T15:15:52.727Z,101464.98
2019-04-28T15:18:23.263Z,101469.63
2019-04-28T15:20:53.701Z,101466.93
2019-04-28T15:23:24.234Z,101468.00
2019-04-28T15:25:54.828Z,101475.13
2019-04-28T15:28:25.306Z,101469.50
2019-04-28T15:30:55.790Z,101470.36
2019-04-28T15:33:26.293Z,101471.75
2019-04-28T15:35:56.731Z,101475.53
2019-04-28T15:38:27.159Z,101483.38
2019-04-28T15:40:57.723Z,101477.86
2019-04-28T15:43:28.220Z,101480.37
2019-04-28T15:45:58.674Z,101478.95
2019-04-28T15:48:29.167Z,101478.56
2019-04-28T15:50:59.626Z,101480.55
2019-04-28T15:53:30.391Z,101482.03
2019-04-28T15:56:15.937Z,101491.69
2019-04-28T15:58:46.427Z,101487.33
2019-04-28T16:01:16.921Z,101485.27
2019-04-28T16:03:47.439Z,101488.36
2019-04-28T16:06:17.933Z,101490.98
2019-04-28T16:08:48.399Z,101495.68
2019-04-28T16:11:18.915Z,101487.94
2019-04-28T16:13:49.335Z,101494.33
2019-04-28T16:16:19.869Z,101487.61
2019-04-28T16:18:50.331Z,101488.29
2019-04-28T16:21:20.898Z,101495.63
2019-04-28T16:23:51.366Z,101502.13
2019-04-28T16:26:23.075Z,101491.64
2019-04-28T16:28:53.691Z,101491.56
2019-04-28T16:31:24.247Z,101498.22
2019-04-28T16:33:54.750Z,101500.88
2019-04-28T16:36:25.243Z,101500.52
2019-04-28T16:38:55.808Z,101499.69
2019-04-28T16:41:31.410Z,101503.71
2019-04-28T16:44:01.895Z,101513.36
2019-04-28T16:46:32.357Z,101506.76
2019-04-28T16:49:02.854Z,101519.66
2019-04-28T16:51:33.353Z,101513.56
2019-04-28T16:54:03.832Z,101514.82
2019-04-28T16:56:59.409Z,101518.25
2019-04-28T16:59:43.297Z,101514.28
2019-04-28T17:02:23.064Z,101518.28
2019-04-28T17:04:53.594Z,101512.02
2019-04-28T17:07:24.058Z,101513.11
2019-04-28T17:09:54.573Z,101516.13
2019-04-28T17:12:25.071Z,101522.50
2019-04-28T17:14:55.581Z,101523.18
2019-04-28T17:17:26.099Z,101526.75
2019-04-28T17:19:56.585Z,101524.88
2019-04-28T17:22:27.063Z,101528.25
2019-04-28T17:24:57.599Z,101523.34
2019-04-28T17:27:28.034Z,101531.64
2019-04-28T17:29:58.534Z,101533.94
2019-04-28T17:32:29.098Z,101528.32
2019-04-28T17:34:59.660Z,101533.64
2019-04-28T17:37:30.147Z,101531.54
2019-04-28T17:40:00.756Z,101538.06
2019-04-28T17:42:31.235Z,101542.19
2019-04-28T17:45:01.766Z,101542.95
2019-04-28T17:47:32.334Z,101550.74
2019-04-28T17:50:02.861Z,101552.22
2019-04-28T17:52:33.425Z,101553.90
2019-04-28T17:55:04.224Z,101550.71
2019-04-28T17:57:34.714Z,101558.44
2019-04-28T18:00:12.718Z,101560.33
2019-04-28T18:03:02.750Z,101556.02
2019-04-28T18:05:41.189Z,101559.37
2019-04-28T18:08:20.807Z,101556.59
2019-04-28T18:10:43.871Z,101565.11
2019-04-28T18:13:14.879Z,101571.74
2019-04-28T18:16:12.008Z,101560.86
2019-04-28T18:18:45.441Z,101562.97
2019-04-28T18:21:15.967Z,101561.64
2019-04-28T18:23:46.459Z,101574.16
2019-04-28T18:26:17.037Z,101576.84
2019-04-28T18:28:47.592Z,101576.13
2019-04-28T18:31:37.072Z,101583.48
2019-04-28T18:34:25.376Z,101582.27
2019-04-28T18:37:21.049Z,101581.27
2019-04-28T18:40:25.697Z,101586.67
2019-04-28T18:43:11.824Z,101586.09
2019-04-28T18:45:42.380Z,101595.57
2019-04-28T18:48:12.955Z,101601.93
2019-04-28T18:50:43.513Z,101598.38
2019-04-28T18:53:14.101Z,101600.67
2019-04-28T18:55:44.604Z,101610.70
2019-04-28T18:58:15.178Z,101612.38
2019-04-28T19:00:52.360Z,101618.56
2019-04-28T19:03:23.578Z,101612.20
2019-04-28T19:05:54.345Z,101620.27
2019-04-28T19:08:48.454Z,101622.98
2019-04-28T19:11:18.654Z,101623.34
2019-04-28T19:13:53.822Z,101621.47
2019-04-28T19:16:41.945Z,101622.44
2019-04-28T19:19:13.737Z,101621.78
2019-04-28T19:21:54.618Z,101626.72
2019-04-28T19:24:26.216Z,101623.00
2019-04-28T19:26:56.719Z,101631.84
2019-04-28T19:29:27.775Z,101632.56
2019-04-28T19:31:58.292Z,101629.36
2019-04-28T19:34:28.865Z,101636.98
2019-04-28T19:36:59.445Z,101638.28
2019-04-28T19:39:30.004Z,101636.17
2019-04-28T19:42:00.546Z,101634.22
2019-04-28T19:44:31.059Z,101636.16
2019-04-28T19:47:01.560Z,101635.95
2019-04-28T19:49:32.035Z,101634.68
2019-04-28T19:52:02.530Z,101639.75
2019-04-28T19:54:36.576Z,101638.41
2019-04-28T19:57:12.723Z,101640.23
2019-04-28T20:00:00.940Z,101648.78
2019-04-28T20:02:34.237Z,101642.98
2019-04-28T20:05:05.049Z,101642.55
2019-04-28T20:07:35.660Z,101647.73
2019-04-28T20:10:06.799Z,101649.39
2019-04-28T20:12:37.259Z,101652.22
2019-04-28T20:15:07.967Z,101663.89
2019-04-28T20:17:38.494Z,101661.25
2019-04-28T20:20:09.165Z,101664.19
2019-04-28T20:22:39.633Z,101660.77
2019-04-28T20:25:10.216Z,101665.91
2019-04-28T20:27:40.734Z,101668.16
2019-04-28T20:30:11.627Z,101667.88
2019-04-28T20:32:46.656Z,101678.92
2019-04-28T20:35:21.682Z,101677.89
2019-04-28T20:38:13.976Z,101676.13
2019-04-28T20:40:50.794Z,101677.27
2019-04-28T20:43:22.085Z,101678.81
2019-04-28T20:45:52.628Z,101679.55
2019-04-28T20:48:23.019Z,101684.00
2019-04-28T20:50:53.553Z,101685.50
2019-04-28T20:53:24.024Z,101680.04
2019-04-28T20:55:54.514Z,101690.87
2019-04-28T20:58:24.976Z,101692.41
2019-04-28T21:00:55.450Z,101692.41
2019-04-28T21:03:25.997Z,101701.55
2019-04-28T21:05:56.485Z,101701.19
2019-04-28T21:08:26.952Z,101700.18
2019-04-28T21:10:57.475Z,101709.77
2019-04-28T21:13:28.025Z,101713.23
2019-04-28T21:15:58.489Z,101716.17
2019-04-28T21:18:29.099Z,101713.91
2019-04-28T21:20:59.652Z,101723.77
2019-04-28T21:23:30.238Z,101728.71
2019-04-28T21:26:00.732Z,101727.21
2019-04-28T21:28:31.247Z,101727.48
2019-04-28T21:31:01.725Z,101728.44
2019-04-28T21:33:32.217Z,101730.42
2019-04-28T21:36:02.690Z,101729.02
2019-04-28T21:38:33.172Z,101730.52
2019-04-28T21:41:03.675Z,101730.33
2019-04-28T21:43:59.049Z,101733.15
2019-04-28T21:46:41.270Z,101731.18
2019-04-28T21:49:21.284Z,101729.89
2019-04-28T21:51:51.813Z,101731.48
2019-04-28T21:54:22.313Z,101726.95
2019-04-28T21:56:52.782Z,101729.78
2019-04-28T21:59:23.282Z,101738.23
2019-04-28T22:01:53.759Z,101735.13
2019-04-28T22:04:24.221Z,101739.27
2019-04-28T22:06:54.731Z,101739.15
2019-04-28T22:09:25.348Z,101740.30
2019-04-28T22:11:55.908Z,101741.98
2019-04-28T22:14:26.412Z,101742.54
2019-04-28T22:16:56.889Z,101739.16
2019-04-28T22:19:27.355Z,101742.34
2019-04-28T22:21:57.861Z,101744.99
2019-04-28T22:24:36.837Z,101738.99
2019-04-28T22:27:08.667Z,101740.88
2019-04-28T22:29:39.188Z,101738.33
2019-04-28T22:32:09.654Z,101740.86
2019-04-28T22:34:40.170Z,101738.69
2019-04-28T22:37:10.566Z,101740.28
2019-04-28T22:39:41.060Z,101743.86
2019-04-28T22:42:11.625Z,101742.73
2019-04-28T22:44:42.109Z,101743.49
2019-04-28T22:47:12.590Z,101742.81
2019-04-28T22:49:43.077Z,101737.66
2019-04-28T22:52:13.542Z,101741.02
2019-04-28T22:55:02.962Z,101744.05
2019-04-28T22:57:58.419Z,101735.77
2019-04-28T23:00:52.575Z,101732.02
2019-04-28T23:03:40.695Z,101728.44
2019-04-28T23:06:11.163Z,101734.53
2019-04-28T23:08:41.747Z,101728.04
2019-04-28T23:11:12.249Z,101733.67
2019-04-28T23:13:42.755Z,101725.03
2019-04-28T23:16:13.362Z,101731.23
2019-04-28T23:18:43.955Z,101732.09
2019-04-28T23:21:35.359Z,101727.09
2019-04-28T23:24:05.832Z,101724.46
2019-04-28T23:26:36.298Z,101733.96
2019-04-28T23:29:06.888Z,101736.41
2019-04-28T23:31:37.357Z,101741.02
2019-04-28T23:34:07.827Z,101750.25
2019-04-28T23:36:38.418Z,101739.61
2019-04-28T23:39:09.372Z,101752.11
2019-04-28T23:41:55.243Z,101750.42
2019-04-28T23:44:25.751Z,101753.06
2019-04-28T23:46:59.852Z,101757.27
2019-04-28T23:49:31.651Z,101758.50
2019-04-28T23:52:19.956Z,101764.70
2019-04-28T23:54:51.920Z,101763.02
2019-04-28T23:57:22.412Z,101769.11
2019-04-28T23:59:52.978Z,101769.11
